Time;durP1;ratioP1;P1;durP2;ratioP2;P2;SDS_P1;SDS_P2;PMS_P1;PMS_P2;Temp;Humidity;BMP_temperature;BMP_pressure;BME280_temperature;BME280_humidity;BME280_pressure;Samples;Min_cycle;Max_cycle;Signal;HPM_P1;HPM_P2
2022/06/28 00:00:40;;;;;;;7.72;3.75;;;;;;;26.59;100.00;99332.25;5126418;27;20225;-78
2022/06/28 00:03:07;;;;;;;6.10;3.67;;;;;;;26.84;95.10;99341.44;5116266;27;20381;-78
2022/06/28 00:05:33;;;;;;;6.32;3.40;;;;;;;26.85;94.40;99359.56;5112728;27;20786;-78
2022/06/28 00:08:00;;;;;;;4.50;3.42;;;;;;;26.80;93.34;99364.44;5121097;27;20262;-78
2022/06/28 00:10:27;;;;;;;6.18;3.30;;;;;;;26.96;90.77;99363.56;5116164;27;20319;-79
2022/06/28 00:12:53;;;;;;;6.45;3.40;;;;;;;26.69;94.22;99361.25;5127760;27;20245;-79
2022/06/28 00:18:05;;;;;;;4.00;3.60;;;;;;;26.55;96.05;99377.97;5107901;27;20265;-78
2022/06/28 00:20:32;;;;;;;4.80;3.30;;;;;;;26.52;96.16;99389.63;5103589;27;20227;-78
2022/06/28 00:22:59;;;;;;;5.57;3.42;;;;;;;26.43;97.40;99383.38;5123080;27;20249;-79
2022/06/28 00:25:26;;;;;;;4.38;3.50;;;;;;;26.45;95.75;99400.34;5115410;27;20595;-79
2022/06/28 00:27:53;;;;;;;5.85;3.42;;;;;;;26.39;93.73;99403.59;5118640;27;20233;-79
2022/06/28 00:30:20;;;;;;;5.50;3.35;;;;;;;26.39;92.56;99409.91;5112470;27;20231;-78
2022/06/28 00:32:46;;;;;;;4.07;3.47;;;;;;;26.46;91.03;99407.44;5129789;27;20248;-79
2022/06/28 00:35:13;;;;;;;3.75;3.45;;;;;;;26.46;90.68;99421.16;5102117;27;20734;-78
2022/06/28 00:37:40;;;;;;;3.92;3.53;;;;;;;26.48;90.83;99420.84;5107042;27;20314;-77
2022/06/28 00:40:07;;;;;;;4.32;3.70;;;;;;;26.32;92.25;99426.06;5103833;27;20663;-78
2022/06/28 00:42:34;;;;;;;5.53;3.80;;;;;;;26.34;91.92;99434.78;5106231;27;20314;-79
2022/06/28 00:45:01;;;;;;;7.45;3.55;;;;;;;26.28;93.03;99434.16;5123478;27;20318;-78
2022/06/28 00:47:28;;;;;;;3.80;3.30;;;;;;;26.16;94.46;99445.00;5097606;27;20333;-78
2022/06/28 00:49:56;;;;;;;4.20;3.60;;;;;;;25.94;97.55;99436.16;5122399;27;20301;-78
2022/06/28 00:52:23;;;;;;;3.80;3.40;;;;;;;25.92;99.03;99450.22;5100339;28;20292;-77
2022/06/28 00:54:50;;;;;;;5.28;3.63;;;;;;;25.67;100.00;99449.09;5107170;27;20260;-78
2022/06/28 00:57:17;;;;;;;3.72;3.42;;;;;;;25.62;100.00;99441.03;5076545;27;20288;-78
2022/06/28 00:59:43;;;;;;;5.38;3.50;;;;;;;25.52;100.00;99446.00;5118784;27;20324;-78
2022/06/28 01:02:10;;;;;;;3.80;3.40;;;;;;;25.39;100.00;99440.34;5102762;27;20728;-78
2022/06/28 01:04:37;;;;;;;3.58;3.28;;;;;;;25.25;100.00;99456.13;5099120;28;20245;-78
2022/06/28 01:07:05;;;;;;;5.60;2.97;;;;;;;25.16;100.00;99449.81;5094022;27;20649;-78
2022/06/28 01:09:32;;;;;;;3.60;3.30;;;;;;;24.88;100.00;99452.03;5096291;28;20219;-78
2022/06/28 01:11:58;;;;;;;3.05;2.50;;;;;;;24.81;100.00;99443.44;5098699;28;20701;-78
2022/06/28 01:14:25;;;;;;;5.90;2.67;;;;;;;24.73;100.00;99459.84;5094792;28;20751;-78
2022/06/28 01:17:07;;;;;;;6.50;2.80;;;;;;;24.61;100.00;99441.28;5083207;28;20282;-77
2022/06/28 01:19:43;;;;;;;6.75;2.63;;;;;;;24.52;100.00;99445.91;5087529;28;20222;-77
2022/06/28 01:22:29;;;;;;;6.97;2.80;;;;;;;24.29;100.00;99427.91;5108169;27;20231;-77
2022/06/28 01:24:58;;;;;;;7.82;2.58;;;;;;;24.04;100.00;99446.56;5076353;27;20213;-77
2022/06/28 01:27:26;;;;;;;4.35;2.30;;;;;;;23.97;100.00;99446.22;5101770;27;20237;-78
2022/06/28 01:29:53;;;;;;;4.78;2.50;;;;;;;23.82;100.00;99445.78;5070118;28;20247;-78
2022/06/28 01:32:33;;;;;;;3.25;2.67;;;;;;;23.70;100.00;99477.22;5079485;27;20238;-78
2022/06/28 01:35:07;;;;;;;3.33;2.50;;;;;;;23.58;100.00;99463.31;5079000;28;20235;-78
2022/06/28 01:37:34;;;;;;;3.83;2.45;;;;;;;23.45;100.00;99475.09;5077005;28;20721;-78
2022/06/28 01:40:03;;;;;;;4.65;2.30;;;;;;;23.48;100.00;99471.72;5096192;27;20235;-77
2022/06/28 01:42:31;;;;;;;2.63;2.42;;;;;;;23.40;100.00;99461.50;5092216;28;20711;-77
2022/06/28 01:44:58;;;;;;;4.55;2.40;;;;;;;23.48;100.00;99465.44;5103788;27;20229;-78
2022/06/28 01:47:34;;;;;;;3.30;2.80;;;;;;;23.45;100.00;99475.09;5092179;28;20323;-78
2022/06/28 01:50:20;;;;;;;3.03;2.33;;;;;;;23.48;100.00;99451.78;5109824;27;20239;-78
2022/06/28 01:52:48;;;;;;;3.38;2.15;;;;;;;23.48;100.00;99463.53;5100798;27;20309;-78
2022/06/28 01:55:41;;;;;;;2.55;2.20;;;;;;;23.39;100.00;99473.56;5111958;27;20640;-77
2022/06/28 01:58:21;;;;;;;3.15;2.00;;;;;;;23.31;100.00;99473.47;5087468;28;20252;-78
2022/06/28 02:00:48;;;;;;;2.38;1.90;;;;;;;23.31;100.00;99490.69;5092245;28;20257;-78
2022/06/28 02:03:14;;;;;;;2.75;1.90;;;;;;;23.12;100.00;99490.00;5091717;28;20219;-77
2022/06/28 02:05:52;;;;;;;2.00;1.90;;;;;;;23.11;100.00;99515.69;5084641;28;20313;-78
2022/06/28 02:08:20;;;;;;;1.93;1.80;;;;;;;23.04;100.00;99528.97;5090340;28;20245;-79
2022/06/28 02:11:13;;;;;;;2.20;2.00;;;;;;;22.93;100.00;99528.34;5105775;28;20234;-77
2022/06/28 02:13:47;;;;;;;4.40;1.90;;;;;;;22.89;100.00;99542.94;5088048;28;20241;-79
2022/06/28 02:16:14;;;;;;;1.83;1.30;;;;;;;22.95;100.00;99556.19;5092999;28;20606;-78
2022/06/28 02:18:42;;;;;;;2.35;1.65;;;;;;;22.79;100.00;99549.38;5104668;28;20246;-78
2022/06/28 02:21:11;;;;;;;1.67;1.52;;;;;;;22.89;100.00;99559.31;5121772;28;20236;-78
2022/06/28 02:23:38;;;;;;;2.00;1.48;;;;;;;23.04;100.00;99554.38;5117498;28;20265;-78
2022/06/28 02:26:04;;;;;;;1.60;1.50;;;;;;;22.92;100.00;99543.13;5110249;28;20718;-78
2022/06/28 02:28:31;;;;;;;1.52;1.42;;;;;;;23.00;100.00;99534.25;5101618;28;20232;-78
2022/06/28 02:30:58;;;;;;;2.25;1.63;;;;;;;23.16;100.00;99510.13;5094719;28;20316;-78
2022/06/28 02:33:25;;;;;;;3.20;1.42;;;;;;;23.04;100.00;99523.50;5104558;28;20238;-78
2022/06/28 02:41:24;;;;;;;2.90;1.80;;;;;;;22.61;100.00;99491.00;5113894;28;20316;-77
2022/06/28 02:43:51;;;;;;;1.85;1.50;;;;;;;22.39;100.00;99490.84;5113611;28;20315;-77
2022/06/28 02:46:17;;;;;;;1.50;1.40;;;;;;;22.17;100.00;99480.56;5115456;28;20284;-77
2022/06/28 02:48:45;;;;;;;3.83;1.80;;;;;;;22.07;100.00;99475.28;5090200;28;20595;-77
2022/06/28 02:51:11;;;;;;;2.73;1.50;;;;;;;22.00;100.00;99476.78;5098583;28;20633;-78
2022/06/28 02:53:38;;;;;;;1.80;1.50;;;;;;;21.99;100.00;99458.78;5091579;28;20231;-78
2022/06/28 02:56:05;;;;;;;1.77;1.67;;;;;;;21.98;100.00;99460.72;5099488;28;20257;-77
2022/06/28 02:58:32;;;;;;;2.40;1.40;;;;;;;21.86;100.00;99430.34;5101836;28;20765;-78
2022/06/28 03:00:59;;;;;;;1.93;1.50;;;;;;;21.71;100.00;99439.59;5084479;28;20251;-78
2022/06/28 03:03:26;;;;;;;2.50;1.80;;;;;;;21.57;100.00;99342.50;5096381;28;20252;-77
2022/06/28 03:05:53;;;;;;;2.27;1.67;;;;;;;21.58;100.00;99292.34;5096032;28;20243;-75
2022/06/28 03:08:20;;;;;;;3.10;1.60;;;;;;;21.39;100.00;99244.16;5093031;28;20232;-75
2022/06/28 03:10:47;;;;;;;5.17;2.00;;;;;;;21.03;100.00;99147.78;5076153;28;20251;-75
2022/06/28 03:13:13;;;;;;;2.73;2.00;;;;;;;20.84;100.00;99073.53;5098758;28;20236;-79
2022/06/28 03:15:40;;;;;;;3.83;2.17;;;;;;;20.78;100.00;99059.19;5082290;28;20649;-76
2022/06/28 03:18:07;;;;;;;2.67;2.47;;;;;;;20.86;100.00;99087.63;5081840;28;20319;-77
2022/06/28 03:20:33;;;;;;;2.80;2.60;;;;;;;20.91;100.00;99191.81;5084673;28;20241;-78
2022/06/28 03:23:00;;;;;;;3.20;2.90;;;;;;;20.91;100.00;99257.16;5096187;28;20249;-78
2022/06/28 03:25:27;;;;;;;3.43;3.17;;;;;;;20.87;100.00;99328.84;5102539;28;20337;-78
2022/06/28 03:27:54;;;;;;;3.30;3.00;;;;;;;20.68;100.00;99402.34;5100912;28;20322;-75
2022/06/28 03:30:21;;;;;;;3.80;3.33;;;;;;;20.60;100.00;99425.56;5095598;28;20238;-78
2022/06/28 03:32:48;;;;;;;3.40;3.10;;;;;;;20.62;100.00;99458.75;5094778;28;20232;-75
2022/06/28 03:35:22;;;;;;;3.43;2.90;;;;;;;20.67;100.00;99477.72;5095950;28;20241;-78
2022/06/28 03:37:49;;;;;;;3.37;3.07;;;;;;;20.66;100.00;99483.50;5091297;28;20246;-78
2022/06/28 03:40:16;;;;;;;3.67;3.33;;;;;;;20.64;100.00;99500.09;5071836;28;20579;-78
2022/06/28 03:42:47;;;;;;;3.43;3.10;;;;;;;20.73;100.00;99492.09;5095874;28;20325;-78
2022/06/28 03:45:14;;;;;;;3.30;3.00;;;;;;;20.87;100.00;99492.22;5103300;28;20237;-78
2022/06/28 03:47:48;;;;;;;3.07;2.87;;;;;;;20.89;100.00;99503.66;5089394;28;20284;-78
2022/06/28 03:50:33;;;;;;;3.33;2.93;;;;;;;20.92;100.00;99519.41;5092898;28;20312;-78
2022/06/28 03:53:08;;;;;;;3.63;2.60;;;;;;;21.09;100.00;99530.63;5088966;28;20653;-78
2022/06/28 03:55:55;;;;;;;3.63;3.03;;;;;;;21.16;100.00;99541.22;5095557;28;20259;-78
2022/06/28 03:58:22;;;;;;;4.50;2.78;;;;;;;21.19;100.00;99551.50;5100000;28;20283;-77
2022/06/28 04:00:49;;;;;;;3.13;2.93;;;;;;;21.23;100.00;99549.84;5097245;28;20232;-78
2022/06/28 04:03:15;;;;;;;3.67;2.80;;;;;;;21.29;100.00;99563.09;5097926;28;20231;-79
2022/06/28 04:05:43;;;;;;;3.05;2.80;;;;;;;21.39;100.00;99560.25;5092706;28;20239;-78
2022/06/28 04:08:09;;;;;;;3.13;2.75;;;;;;;21.49;100.00;99565.59;5086196;28;20724;-79
2022/06/28 04:10:45;;;;;;;3.20;2.90;;;;;;;21.64;100.00;99563.75;5092332;28;20224;-78
2022/06/28 04:13:17;;;;;;;2.70;2.50;;;;;;;21.79;100.00;99571.75;5101541;28;20236;-81
2022/06/28 04:15:43;;;;;;;2.85;2.65;;;;;;;21.93;100.00;99576.16;5088993;28;20290;-79
2022/06/28 04:18:14;;;;;;;2.45;2.25;;;;;;;22.04;100.00;99573.28;5089424;28;20315;-78
2022/06/28 04:20:52;;;;;;;2.50;2.30;;;;;;;22.10;100.00;99581.13;5095758;28;20273;-79
2022/06/28 04:23:19;;;;;;;2.97;2.45;;;;;;;22.21;100.00;99579.03;5088921;28;20821;-79
2022/06/28 04:25:46;;;;;;;2.72;2.53;;;;;;;22.36;100.00;99573.31;5091556;28;20238;-78
2022/06/28 04:28:25;;;;;;;2.65;2.55;;;;;;;22.45;100.00;99582.44;5085132;28;20720;-78
2022/06/28 04:31:05;;;;;;;2.67;2.47;;;;;;;22.55;100.00;99578.72;5088205;28;20235;-80
2022/06/28 04:33:33;;;;;;;2.40;2.20;;;;;;;22.66;100.00;99594.66;5096168;28;20227;-78
2022/06/28 04:36:00;;;;;;;3.03;2.83;;;;;;;22.69;100.00;99595.97;5087476;28;20229;-79
2022/06/28 04:38:29;;;;;;;2.58;2.42;;;;;;;22.76;100.00;99591.78;5099270;28;20223;-79
2022/06/28 04:41:03;;;;;;;2.70;2.50;;;;;;;22.79;100.00;99582.97;5105890;27;20590;-79
2022/06/28 04:43:43;;;;;;;2.60;2.33;;;;;;;22.87;100.00;99594.31;5082615;28;20236;-79
2022/06/28 04:46:14;;;;;;;2.47;2.28;;;;;;;22.89;100.00;99597.56;5097891;28;20225;-79
2022/06/28 04:48:44;;;;;;;2.05;1.80;;;;;;;22.92;100.00;99595.03;5084249;28;20274;-78
2022/06/28 04:51:12;;;;;;;2.17;2.03;;;;;;;23.02;100.00;99597.56;5073101;28;20592;-79
2022/06/28 04:53:44;;;;;;;2.25;2.03;;;;;;;22.97;100.00;99607.78;5072748;28;20781;-79
2022/06/28 04:56:12;;;;;;;3.08;2.38;;;;;;;23.10;100.00;99607.78;5077576;28;20232;-79
2022/06/28 04:58:45;;;;;;;2.00;1.70;;;;;;;23.27;100.00;99596.28;5056371;28;20257;-78
2022/06/28 05:01:12;;;;;;;2.75;1.30;;;;;;;23.40;100.00;99617.34;5077845;28;20236;-78
2022/06/28 05:03:42;;;;;;;2.08;1.98;;;;;;;23.18;100.00;99614.50;5075429;28;20595;-78
2022/06/28 05:06:30;;;;;;;1.75;1.23;;;;;;;23.01;100.00;99620.53;5061368;28;20232;-78
2022/06/28 05:08:58;;;;;;;1.30;1.20;;;;;;;22.98;100.00;99628.53;5068107;28;20585;-79
2022/06/28 05:11:46;;;;;;;1.33;1.23;;;;;;;22.93;100.00;99625.88;5079763;28;20309;-78
2022/06/28 05:14:16;;;;;;;1.30;1.20;;;;;;;22.98;100.00;99634.81;5073782;28;20236;-79
2022/06/28 05:16:45;;;;;;;2.08;1.27;;;;;;;22.98;100.00;99639.47;5072962;28;20605;-77
2022/06/28 05:19:13;;;;;;;1.70;1.38;;;;;;;22.97;100.00;99633.19;5054418;28;20654;-78
2022/06/28 05:21:40;;;;;;;1.20;1.10;;;;;;;23.06;100.00;99638.75;5072981;28;20228;-79
2022/06/28 05:24:07;;;;;;;1.08;1.00;;;;;;;23.15;100.00;99635.03;5062169;28;20221;-79
2022/06/28 05:26:40;;;;;;;3.08;1.23;;;;;;;23.18;100.00;99639.91;5079397;28;20704;-78
2022/06/28 05:29:15;;;;;;;1.23;1.13;;;;;;;23.40;100.00;99638.41;5071515;28;20555;-79
2022/06/28 05:31:42;;;;;;;1.10;1.00;;;;;;;23.44;100.00;99637.50;5082576;28;20372;-81
2022/06/28 05:34:09;;;;;;;1.48;1.20;;;;;;;23.48;100.00;99638.53;5078116;28;20703;-79
2022/06/28 05:36:37;;;;;;;1.48;1.13;;;;;;;23.64;100.00;99636.28;5069440;28;20256;-79
2022/06/28 05:39:04;;;;;;;0.90;0.90;;;;;;;23.78;100.00;99647.22;5063704;28;20238;-79
2022/06/28 05:41:32;;;;;;;1.15;1.10;;;;;;;24.02;100.00;99653.25;5061439;28;20271;-79
2022/06/28 05:44:00;;;;;;;1.42;1.33;;;;;;;24.13;100.00;99652.72;5072437;28;20268;-79
2022/06/28 05:46:28;;;;;;;1.67;1.33;;;;;;;24.30;100.00;99662.25;5071477;28;20293;-79
2022/06/28 05:48:55;;;;;;;0.98;0.90;;;;;;;24.45;100.00;99681.84;5080213;28;20241;-78
2022/06/28 05:51:21;;;;;;;1.33;1.10;;;;;;;24.51;100.00;99693.50;5079295;28;20236;-79
2022/06/28 05:53:49;;;;;;;1.83;1.20;;;;;;;24.53;100.00;99697.56;5084780;28;20729;-79
2022/06/28 05:56:16;;;;;;;1.73;1.10;;;;;;;24.66;100.00;99706.03;5086938;28;20233;-79
2022/06/28 05:58:43;;;;;;;1.15;1.05;;;;;;;24.52;100.00;99704.16;5072524;28;20313;-78
2022/06/28 06:01:09;;;;;;;1.80;1.10;;;;;;;24.55;100.00;99713.66;5087750;28;20305;-79
2022/06/28 06:03:37;;;;;;;1.20;1.10;;;;;;;24.58;100.00;99723.19;5076934;28;20245;-80
2022/06/28 06:06:04;;;;;;;3.88;1.33;;;;;;;24.61;100.00;99715.16;5078357;28;20263;-79
2022/06/28 06:08:32;;;;;;;1.40;1.30;;;;;;;24.60;100.00;99716.28;5079091;28;20883;-79
2022/06/28 06:10:59;;;;;;;1.95;1.23;;;;;;;24.61;100.00;99715.16;5057593;28;20227;-78
2022/06/28 06:13:26;;;;;;;1.55;0.95;;;;;;;24.60;100.00;99707.25;5089596;28;20329;-79
2022/06/28 06:15:52;;;;;;;1.42;1.10;;;;;;;24.73;100.00;99701.72;5080551;28;20716;-79
2022/06/28 06:18:19;;;;;;;1.45;1.00;;;;;;;24.89;100.00;99703.00;5077557;28;20264;-78
2022/06/28 06:20:46;;;;;;;1.20;1.10;;;;;;;25.08;100.00;99702.81;5072101;28;20762;-79
2022/06/28 06:23:13;;;;;;;2.03;1.20;;;;;;;25.17;100.00;99706.41;5089188;28;20242;-79
2022/06/28 06:26:14;;;;;;;1.27;1.00;;;;;;;25.53;95.93;99702.69;5072740;28;20246;-78
2022/06/28 06:28:41;;;;;;;1.15;1.10;;;;;;;25.70;94.67;99702.81;5073765;28;20226;-79
2022/06/28 06:31:09;;;;;;;1.63;1.20;;;;;;;25.78;91.01;99711.06;5075555;28;20310;-79
2022/06/28 06:33:52;;;;;;;1.77;1.20;;;;;;;25.87;91.17;99711.09;5081348;28;20236;-79
2022/06/28 06:36:39;;;;;;;1.55;1.10;;;;;;;26.05;90.80;99712.75;5074757;28;20284;-79
2022/06/28 06:39:08;;;;;;;1.33;1.20;;;;;;;25.90;100.00;99726.91;5080834;28;20245;-81
2022/06/28 06:41:35;;;;;;;2.35;1.50;;;;;;;25.68;100.00;99736.03;5071007;28;20223;-78
2022/06/28 06:44:02;;;;;;;1.65;1.25;;;;;;;25.81;100.00;99735.13;5076464;28;20292;-78
2022/06/28 06:46:32;;;;;;;4.07;1.40;;;;;;;25.80;100.00;99725.25;5086231;28;20274;-78
2022/06/28 06:48:59;;;;;;;3.88;1.38;;;;;;;25.96;100.00;99727.59;5104464;28;20743;-79
2022/06/28 06:51:26;;;;;;;1.13;1.10;;;;;;;25.85;100.00;99732.53;5097170;28;20332;-79
2022/06/28 06:53:53;;;;;;;1.42;1.25;;;;;;;26.00;100.00;99728.56;5100017;28;20281;-79
2022/06/28 06:56:19;;;;;;;1.30;1.20;;;;;;;25.90;100.00;99740.63;5100247;28;20260;-78
2022/06/28 06:58:46;;;;;;;1.30;1.20;;;;;;;26.00;100.00;99742.28;5094404;28;20701;-79
2022/06/28 07:01:13;;;;;;;1.30;1.20;;;;;;;26.20;98.12;99748.00;5103040;28;20263;-79
2022/06/28 07:04:03;;;;;;;1.50;1.38;;;;;;;26.17;90.78;99734.91;5099950;27;20232;-79
2022/06/28 07:06:31;;;;;;;1.85;1.35;;;;;;;26.46;90.79;99734.31;5107033;27;20298;-78
2022/06/28 07:08:58;;;;;;;1.55;1.30;;;;;;;26.69;91.35;99734.97;5120701;27;21433;-79
2022/06/28 07:11:24;;;;;;;2.75;1.33;;;;;;;26.96;92.30;99740.19;5103947;28;20622;-79
2022/06/28 07:13:51;;;;;;;1.40;1.30;;;;;;;26.82;87.38;99738.72;5108113;27;20311;-79
2022/06/28 07:16:18;;;;;;;1.30;1.20;;;;;;;26.74;84.98;99738.38;5108188;27;20325;-80
2022/06/28 07:18:45;;;;;;;2.65;1.30;;;;;;;26.98;80.61;99742.59;5102797;27;20669;-78
2022/06/28 07:21:11;;;;;;;2.55;1.10;;;;;;;26.82;81.68;99736.78;5118137;27;20254;-79
2022/06/28 07:23:41;;;;;;;2.95;1.50;;;;;;;27.10;79.15;99740.81;5097942;27;20226;-80
2022/06/28 07:26:08;;;;;;;1.38;1.23;;;;;;;27.00;79.57;99732.09;5100030;27;20714;-79
2022/06/28 07:28:35;;;;;;;1.38;1.27;;;;;;;27.04;76.39;99733.88;5121551;27;20277;-78
2022/06/28 07:31:02;;;;;;;1.92;1.30;;;;;;;27.24;74.51;99734.31;5084091;27;20323;-79
2022/06/28 07:33:29;;;;;;;1.70;1.30;;;;;;;27.22;72.07;99744.81;5094447;27;20235;-79
2022/06/28 07:35:55;;;;;;;1.45;1.20;;;;;;;27.24;75.12;99743.38;5099948;28;20742;-79
2022/06/28 07:38:22;;;;;;;3.85;1.17;;;;;;;27.39;71.66;99734.56;5103845;27;20235;-79
2022/06/28 07:41:07;;;;;;;2.35;1.30;;;;;;;27.44;72.85;99733.59;5120274;27;20242;-79
2022/06/28 07:44:03;;;;;;;2.42;1.67;;;;;;;27.65;71.18;99730.97;5104703;27;20219;-79
2022/06/28 07:46:31;;;;;;;1.38;1.27;;;;;;;27.64;70.79;99727.41;5104370;27;20721;-79
2022/06/28 07:48:58;;;;;;;2.10;1.30;;;;;;;27.66;69.23;99732.59;5106438;28;20300;-79
2022/06/28 07:54:14;;;;;;;1.70;1.23;;;;;;;27.87;68.42;99736.19;5108267;27;20237;-79
2022/06/28 07:56:56;;;;;;;1.92;1.10;;;;;;;27.79;66.67;99734.31;5099931;28;20319;-82
2022/06/28 07:59:23;;;;;;;1.13;1.00;;;;;;;27.90;68.62;99719.81;5098003;28;20226;-79
2022/06/28 08:01:50;;;;;;;2.20;1.35;;;;;;;27.94;64.04;99718.03;5099887;27;20577;-80
2022/06/28 08:04:21;;;;;;;1.95;1.40;;;;;;;27.81;65.49;99708.06;5095252;27;20239;-80
2022/06/28 08:06:49;;;;;;;3.40;1.30;;;;;;;27.89;65.72;99720.16;5092631;28;20235;-79
2022/06/28 08:09:17;;;;;;;1.67;1.10;;;;;;;28.12;63.13;99718.78;5103364;27;20683;-80
2022/06/28 08:11:46;;;;;;;2.10;1.27;;;;;;;27.90;63.26;99711.56;5099667;27;20237;-79
2022/06/28 08:14:13;;;;;;;2.10;1.35;;;;;;;27.91;62.83;99717.88;5115929;27;20312;-79
2022/06/28 08:16:40;;;;;;;2.38;1.50;;;;;;;27.94;63.06;99718.03;5099749;28;20727;-79
2022/06/28 08:19:10;;;;;;;1.45;1.10;;;;;;;27.92;62.63;99706.53;5099820;28;20662;-80
2022/06/28 08:21:38;;;;;;;1.45;1.10;;;;;;;27.83;64.90;99699.47;5095233;28;20224;-79
2022/06/28 08:24:05;;;;;;;2.72;1.10;;;;;;;27.94;63.35;99704.28;5097257;28;20722;-79
2022/06/28 08:26:32;;;;;;;2.58;1.35;;;;;;;28.09;62.26;99705.63;5104749;27;20648;-79
2022/06/28 08:28:59;;;;;;;1.63;1.40;;;;;;;28.09;62.33;99704.84;5107787;27;20284;-79
2022/06/28 08:31:26;;;;;;;1.63;1.23;;;;;;;28.17;62.33;99699.31;5115287;27;20258;-79
2022/06/28 08:33:52;;;;;;;2.53;1.20;;;;;;;28.29;62.86;99695.81;5101033;27;20276;-79
2022/06/28 08:36:19;;;;;;;1.90;1.30;;;;;;;28.26;62.15;99694.53;5092970;27;20245;-80
2022/06/28 08:38:46;;;;;;;3.17;1.30;;;;;;;28.24;62.74;99699.56;5119066;27;20239;-79
2022/06/28 08:41:13;;;;;;;2.03;1.13;;;;;;;28.09;63.14;99700.13;5114401;27;20315;-79
2022/06/28 08:43:39;;;;;;;2.15;1.10;;;;;;;28.22;62.22;99698.28;5118348;27;20322;-79
2022/06/28 08:46:06;;;;;;;2.28;1.20;;;;;;;28.21;63.74;99693.91;5111518;27;20220;-79
2022/06/28 08:48:43;;;;;;;2.40;1.10;;;;;;;28.28;61.84;99675.72;5080469;28;20684;-79
2022/06/28 08:51:10;;;;;;;1.77;1.20;;;;;;;28.25;61.08;99684.66;5101367;27;20737;-80
2022/06/28 08:53:39;;;;;;;2.55;1.25;;;;;;;28.37;60.63;99675.63;5117248;27;20331;-79
2022/06/28 08:56:08;;;;;;;3.92;1.40;;;;;;;28.41;63.62;99688.44;5110578;27;20223;-80
2022/06/28 08:58:34;;;;;;;2.38;1.30;;;;;;;28.28;62.78;99678.47;5111419;28;20766;-79
2022/06/28 09:01:01;;;;;;;2.10;1.27;;;;;;;28.43;63.30;99675.09;5100590;27;20232;-79
2022/06/28 09:03:28;;;;;;;2.40;1.40;;;;;;;28.46;61.50;99659.88;5107940;28;20321;-79
2022/06/28 09:05:55;;;;;;;2.10;1.50;;;;;;;28.60;61.60;99663.16;5113957;27;20235;-80
2022/06/28 09:08:22;;;;;;;1.73;1.40;;;;;;;28.81;60.05;99669.44;5123686;27;20687;-79
2022/06/28 09:10:49;;;;;;;3.35;1.55;;;;;;;28.85;62.06;99664.06;5109597;27;20261;-80
2022/06/28 09:13:18;;;;;;;2.22;1.60;;;;;;;28.74;62.45;99665.63;5108380;27;20310;-80
2022/06/28 09:15:55;;;;;;;2.58;1.52;;;;;;;28.92;61.90;99672.59;5113628;27;20246;-79
2022/06/28 09:18:46;;;;;;;1.92;1.50;;;;;;;28.86;60.48;99668.44;5095232;28;20259;-80
2022/06/28 09:21:18;;;;;;;2.40;1.33;;;;;;;28.95;61.71;99666.38;5096597;27;20236;-80
2022/06/28 09:23:48;;;;;;;3.38;1.60;;;;;;;29.15;61.81;99681.28;5099154;27;20268;-79
2022/06/28 09:26:17;;;;;;;2.20;1.45;;;;;;;29.11;59.15;99675.63;5106604;27;20232;-79
2022/06/28 09:28:53;;;;;;;3.35;1.60;;;;;;;28.94;62.54;99683.25;5092572;28;20605;-79
2022/06/28 09:31:28;;;;;;;2.05;1.50;;;;;;;28.76;59.78;99685.38;5113241;27;20238;-80
2022/06/28 09:34:04;;;;;;;1.30;1.20;;;;;;;28.93;59.62;99696.25;5102207;27;20227;-80
2022/06/28 09:36:32;;;;;;;1.70;1.60;;;;;;;28.89;63.14;99681.53;5109338;27;20268;-79
2022/06/28 09:39:12;;;;;;;3.75;1.50;;;;;;;29.09;60.22;99683.44;5105302;27;20692;-78
2022/06/28 09:41:46;;;;;;;2.22;1.40;;;;;;;29.23;61.47;99683.13;5123827;27;20678;-79
2022/06/28 09:44:33;;;;;;;1.85;1.70;;;;;;;29.25;61.65;99684.41;5092117;28;20634;-79
2022/06/28 09:46:59;;;;;;;2.30;1.40;;;;;;;29.12;60.42;99690.22;5116272;27;20251;-79
2022/06/28 09:49:28;;;;;;;2.85;1.45;;;;;;;29.28;57.96;99677.38;5117969;27;20234;-79
2022/06/28 09:51:57;;;;;;;1.95;1.52;;;;;;;29.46;60.03;99675.25;5113209;27;20270;-80
2022/06/28 09:54:27;;;;;;;1.70;1.58;;;;;;;29.60;57.09;99684.81;5113385;27;20243;-79
2022/06/28 09:56:55;;;;;;;2.45;1.67;;;;;;;29.39;60.37;99691.56;5118985;27;20301;-80
2022/06/28 09:59:27;;;;;;;2.90;1.63;;;;;;;29.39;60.73;99681.34;5120212;27;20306;-79
2022/06/28 10:01:55;;;;;;;3.35;2.03;;;;;;;29.13;62.66;99680.78;5102192;27;20308;-79
2022/06/28 10:04:23;;;;;;;2.20;1.52;;;;;;;28.99;60.46;99675.59;5113822;27;20223;-79
2022/06/28 10:06:50;;;;;;;2.25;1.60;;;;;;;29.04;59.29;99682.84;5115050;27;20226;-79
2022/06/28 10:09:19;;;;;;;2.72;1.83;;;;;;;29.12;62.54;99673.66;5099838;28;20231;-78
2022/06/28 10:17:33;;;;;;;2.10;2.00;;;;;;;29.33;59.72;99682.72;5116170;27;20239;-79
2022/06/28 10:20:05;;;;;;;2.20;2.00;;;;;;;29.44;59.67;99672.84;5109000;28;20239;-79
2022/06/28 10:22:31;;;;;;;2.10;1.90;;;;;;;29.63;62.42;99672.28;5110117;28;20242;-79
2022/06/28 10:25:00;;;;;;;2.28;2.08;;;;;;;29.66;62.22;99655.00;5117561;28;20711;-79
2022/06/28 10:27:29;;;;;;;2.50;2.30;;;;;;;28.88;65.40;99650.38;5087576;27;20351;-80
2022/06/28 10:29:58;;;;;;;2.35;2.15;;;;;;;29.22;60.87;99663.00;5095061;28;20306;-79
2022/06/28 10:32:43;;;;;;;2.75;2.17;;;;;;;29.17;63.89;99654.94;5104285;28;20258;-79
2022/06/28 10:35:29;;;;;;;2.50;2.20;;;;;;;29.61;62.13;99655.25;5112207;27;20608;-78
2022/06/28 10:38:10;;;;;;;3.72;2.10;;;;;;;29.67;61.16;99654.69;5111208;27;20335;-79
2022/06/28 10:40:47;;;;;;;2.80;1.95;;;;;;;30.06;60.75;99646.81;5121175;27;20279;-79
2022/06/28 10:43:15;;;;;;;2.53;2.08;;;;;;;30.24;57.22;99642.63;5119350;27;20223;-78
2022/06/28 10:46:00;;;;;;;2.63;2.40;;;;;;;30.49;57.97;99655.25;5118332;27;20314;-79
2022/06/28 10:48:29;;;;;;;2.25;2.05;;;;;;;30.69;56.78;99650.69;5117081;27;20258;-79
2022/06/28 10:50:59;;;;;;;2.90;2.40;;;;;;;30.81;54.83;99641.50;5103306;27;20706;-79
2022/06/28 10:53:28;;;;;;;3.58;2.20;;;;;;;31.24;52.28;99633.22;5103676;27;20234;-80
2022/06/28 10:56:15;;;;;;;4.15;2.55;;;;;;;30.98;54.21;99628.16;5105217;27;20226;-79
2022/06/28 10:59:05;;;;;;;5.75;2.88;;;;;;;30.30;55.34;99621.88;5127283;27;20238;-78
2022/06/28 11:01:44;;;;;;;4.38;2.58;;;;;;;30.82;54.06;99632.06;5101379;27;20337;-79
2022/06/28 11:04:18;;;;;;;5.20;2.53;;;;;;;30.50;53.13;99632.00;5110262;27;20224;-79
2022/06/28 11:06:49;;;;;;;3.35;2.90;;;;;;;30.73;53.90;99632.22;5121199;27;20220;-79
2022/06/28 11:09:25;;;;;;;2.70;2.50;;;;;;;31.16;52.39;99625.09;5123738;27;20275;-79
2022/06/28 11:12:13;;;;;;;3.60;2.53;;;;;;;31.25;52.82;99622.94;5115534;27;20301;-79
2022/06/28 11:15:00;;;;;;;2.55;2.35;;;;;;;31.88;50.42;99618.13;5103474;27;20240;-80
2022/06/28 11:17:43;;;;;;;2.90;2.50;;;;;;;31.92;51.48;99626.56;5111387;27;20235;-80
2022/06/28 11:20:15;;;;;;;3.10;2.80;;;;;;;32.21;49.55;99621.28;5112156;27;20231;-79
2022/06/28 11:22:44;;;;;;;3.78;2.50;;;;;;;31.59;52.01;99602.06;5094155;28;20302;-79
2022/06/28 11:25:15;;;;;;;4.20;2.40;;;;;;;32.08;50.84;99617.00;5105799;27;20232;-80
2022/06/28 11:27:46;;;;;;;2.90;2.70;;;;;;;32.39;48.51;99605.00;5111843;27;20236;-79
2022/06/28 11:30:14;;;;;;;2.70;2.50;;;;;;;32.30;47.41;99601.66;5093695;28;20234;-80
2022/06/28 11:32:44;;;;;;;3.50;2.70;;;;;;;32.14;47.79;99593.44;5109592;27;20300;-79
2022/06/28 11:35:16;;;;;;;3.22;2.90;;;;;;;31.42;51.74;99601.22;5111835;27;20233;-79
2022/06/28 11:37:50;;;;;;;3.22;2.60;;;;;;;31.98;52.63;99589.06;5097217;28;20254;-80
2022/06/28 11:40:18;;;;;;;2.63;2.42;;;;;;;32.33;49.22;99595.41;5115456;27;20756;-80
2022/06/28 11:42:46;;;;;;;3.25;2.75;;;;;;;32.31;47.21;99595.75;5115130;27;20219;-80
2022/06/28 11:45:14;;;;;;;3.35;2.70;;;;;;;32.30;47.56;99598.88;5096386;27;20597;-79
2022/06/28 11:47:44;;;;;;;3.63;2.70;;;;;;;32.53;46.35;99596.16;5105240;27;20240;-80
2022/06/28 11:50:13;;;;;;;3.40;2.53;;;;;;;33.07;46.39;99596.81;5113182;27;20239;-80
2022/06/28 11:52:47;;;;;;;2.60;2.40;;;;;;;32.20;47.65;99591.94;5104767;27;20602;-80
2022/06/28 11:55:14;;;;;;;2.90;2.33;;;;;;;31.85;47.96;99594.75;5100211;27;20262;-79
2022/06/28 11:57:41;;;;;;;2.50;2.30;;;;;;;31.55;49.41;99584.50;5099651;28;20539;-80
2022/06/28 12:00:08;;;;;;;2.83;2.45;;;;;;;31.80;50.20;99578.41;5072557;27;20235;-78